TimeCST,TemperatureF,Dew PointF,Humidity,Sea Level PressureIn,VisibilityMPH,Wind Direction,Wind SpeedMPH,Gust SpeedMPH,PrecipitationIn,Events,Conditions,WindDirDegrees,DateUTC
12:55 AM,37.6,28.9,71,30.08,10.0,NE,5.8,-,N/A,,Overcast,50,2012-02-19 06:55:00
1:55 AM,36.7,29.3,75,30.09,10.0,NE,6.9,-,N/A,,Overcast,50,2012-02-19 07:55:00
2:55 AM,35.8,29.3,77,30.07,10.0,ENE,4.6,-,N/A,,Overcast,60,2012-02-19 08:55:00
3:55 AM,34.9,29.3,80,30.07,10.0,NE,4.6,-,N/A,,Overcast,50,2012-02-19 09:55:00
4:55 AM,33.6,29.3,84,30.09,10.0,North,4.6,-,N/A,,Overcast,360,2012-02-19 10:55:00
5:55 AM,31.3,28.4,89,30.09,10.0,NNE,3.5,-,N/A,,Partly Cloudy,20,2012-02-19 11:55:00
6:55 AM,30.0,28.0,92,30.09,10.0,NE,4.6,-,N/A,,Mostly Cloudy,40,2012-02-19 12:55:00
7:55 AM,30.2,28.6,94,30.11,10.0,NNW,3.5,-,N/A,,Clear,340,2012-02-19 13:55:00
8:55 AM,34.2,28.2,79,30.12,10.0,Variable,3.5,-,N/A,,Clear,0,2012-02-19 14:55:00
9:55 AM,38.1,27.1,65,30.13,10.0,ENE,6.9,-,N/A,,Clear,60,2012-02-19 15:55:00
10:55 AM,41.0,26.1,55,30.14,10.0,Variable,4.6,-,N/A,,Clear,0,2012-02-19 16:55:00
11:55 AM,43.9,24.3,46,30.11,10.0,NNE,9.2,-,N/A,,Clear,30,2012-02-19 17:55:00
12:55 PM,46.2,23.0,40,30.09,10.0,North,8.1,-,N/A,,Clear,360,2012-02-19 18:55:00
1:55 PM,47.5,24.6,41,30.08,10.0,NNE,5.8,-,N/A,,Clear,20,2012-02-19 19:55:00
2:55 PM,48.7,25.0,40,30.07,10.0,Calm,Calm,-,N/A,,Clear,0,2012-02-19 20:55:00
3:55 PM,48.0,24.4,40,30.08,10.0,Calm,Calm,-,N/A,,Clear,0,2012-02-19 21:55:00
4:55 PM,47.1,23.9,40,30.09,10.0,ENE,4.6,-,N/A,,Clear,60,2012-02-19 22:55:00
5:55 PM,44.6,23.0,43,30.09,10.0,NE,3.5,-,N/A,,Clear,50,2012-02-19 23:55:00
6:55 PM,41.7,22.6,47,30.10,10.0,ENE,4.6,-,N/A,,Clear,60,2012-02-20 00:55:00
7:55 PM,40.6,22.8,49,30.12,10.0,East,4.6,-,N/A,,Clear,90,2012-02-20 01:55:00
8:55 PM,37.9,20.5,49,30.09,10.0,East,6.9,-,N/A,,Clear,90,2012-02-20 02:55:00
9:55 PM,35.4,20.7,55,30.10,10.0,ESE,8.1,-,N/A,,Clear,110,2012-02-20 03:55:00
10:55 PM,34.2,21.0,59,30.11,10.0,SE,9.2,-,N/A,,Clear,130,2012-02-20 04:55:00
11:55 PM,31.1,21.2,67,30.13,10.0,SE,6.9,-,N/A,,Clear,130,2012-02-20 05:55:00